Time;durP1;ratioP1;P1;durP2;ratioP2;P2;SDS_P1;SDS_P2;PMS_P1;PMS_P2;Temp;Humidity;BMP_temperature;BMP_pressure;BME280_temperature;BME280_humidity;BME280_pressure;Samples;Min_cycle;Max_cycle;Signal;HPM_P1;HPM_P2
2023/08/28 10:16:22;;;;;;;18.33;6.63;;;;;;;21.56;44.74;99151.66;4982036;28;20039;-92
2023/08/28 10:19:18;;;;;;;19.15;6.68;;;;;;;21.31;44.50;99132.84;4965337;28;20031;-91
2023/08/28 10:22:31;;;;;;;10.13;6.63;;;;;;;21.90;44.76;99204.25;4964252;28;20115;-91
2023/08/28 10:25:30;;;;;;;16.90;7.25;;;;;;;21.93;48.78;99184.78;5139085;23;20066;-90
2023/08/28 10:28:15;;;;;;;10.90;7.70;;;;;;;22.18;46.41;99190.44;4961011;28;20027;-93
2023/08/28 10:58:44;;;;;;;16.65;7.22;;;;;;;22.84;45.77;99187.34;967129;23;20319;31
2023/08/28 11:01:22;;;;;;;24.52;7.50;;;;;;;22.62;44.77;99136.41;4876471;29;20044;-92
2023/08/28 11:46:12;;;;;;;17.98;7.20;;;;;;;22.49;44.27;99161.06;5224059;23;20031;-89
2023/08/28 11:48:59;;;;;;;17.95;7.00;;;;;;;22.40;43.39;99152.31;4947270;29;20074;-91
2023/08/28 11:51:46;;;;;;;15.23;6.93;;;;;;;22.25;45.74;99154.28;4950291;28;20047;-90
2023/08/28 11:54:14;;;;;;;20.35;7.72;;;;;;;22.44;44.21;99163.44;4947676;28;20119;-90
2023/08/28 11:56:43;;;;;;;17.92;7.18;;;;;;;22.86;45.00;99175.78;4960910;28;20087;-90
2023/08/28 11:59:11;;;;;;;12.00;6.90;;;;;;;23.13;43.84;99165.81;4945016;29;20043;-89
2023/08/28 12:01:39;;;;;;;13.38;7.50;;;;;;;23.07;42.83;99122.03;4958734;29;20062;-91
2023/08/28 12:04:07;;;;;;;21.25;7.32;;;;;;;23.42;41.97;99171.34;4923029;29;20076;-91
2023/08/28 12:06:41;;;;;;;14.63;7.38;;;;;;;23.33;42.52;99131.91;4906849;29;20049;-92
2023/08/28 12:10:00;;;;;;;14.60;6.75;;;;;;;23.22;41.31;99104.06;4941053;29;20060;-93
2023/08/28 12:13:20;;;;;;;13.40;7.50;;;;;;;23.27;40.96;99141.88;4910285;29;20111;-93
2023/08/28 12:22:21;;;;;;;16.27;8.05;;;;;;;23.38;42.19;99118.34;2283021;23;20400;-91
2023/08/28 12:24:52;;;;;;;27.35;7.45;;;;;;;23.34;41.64;99136.28;5121372;23;20093;-90
2023/08/28 12:27:33;;;;;;;34.28;7.85;;;;;;;23.10;42.47;99146.31;4981179;28;20075;-92
2023/08/28 12:30:19;;;;;;;18.10;7.50;;;;;;;22.98;44.75;99133.59;4965842;28;20042;-91
2023/08/28 12:36:09;;;;;;;26.35;7.60;;;;;;;23.14;43.06;99161.03;5017288;28;20057;-89
2023/08/28 12:39:07;;;;;;;22.77;8.88;;;;;;;22.81;42.94;99114.88;4986116;28;20025;-90
2023/08/28 12:41:48;;;;;;;30.92;9.88;;;;;;;23.02;44.82;99151.13;4998486;28;20046;-91
2023/08/28 12:44:14;;;;;;;40.17;10.60;;;;;;;22.90;43.14;99124.41;4982334;28;20046;-90
2023/08/28 12:46:41;;;;;;;20.45;8.05;;;;;;;23.09;42.81;99139.94;4982703;28;20034;-91
2023/08/28 12:49:26;;;;;;;27.83;8.20;;;;;;;23.32;42.50;99153.44;4968958;28;20049;-90
2023/08/28 12:52:43;;;;;;;16.73;7.28;;;;;;;23.20;39.95;99110.03;4989516;28;20022;-91
2023/08/28 12:55:30;;;;;;;17.02;7.55;;;;;;;23.50;41.31;99150.56;4997175;28;20038;-91
2023/08/28 13:06:28;;;;;;;17.50;7.57;;;;;;;23.70;42.68;99142.56;4914015;29;20060;-92
2023/08/28 13:08:59;;;;;;;26.05;9.00;;;;;;;23.50;41.19;99110.72;4901315;29;20513;-89
2023/08/28 13:11:27;;;;;;;65.35;10.80;;;;;;;23.62;41.25;99125.03;4888613;29;20052;-90
2023/08/28 13:14:16;;;;;;;29.25;8.55;;;;;;;23.75;42.16;99153.31;4888549;29;20107;-89
2023/08/28 13:16:49;;;;;;;17.55;7.72;;;;;;;23.62;39.82;99144.56;4917116;29;20020;-90
2023/08/28 13:19:21;;;;;;;19.90;8.57;;;;;;;23.57;42.90;99124.63;4903974;29;20044;-90
2023/08/28 13:22:06;;;;;;;25.13;7.93;;;;;;;23.58;41.99;99146.56;4920029;29;20087;-90
2023/08/28 13:24:40;;;;;;;15.68;7.53;;;;;;;23.07;41.56;99122.81;4923087;29;20060;-91
2023/08/28 13:27:32;;;;;;;40.05;9.40;;;;;;;23.20;44.29;99168.59;4937774;29;20067;-89
2023/08/28 13:30:00;;;;;;;23.00;9.38;;;;;;;23.00;41.48;99181.38;4906924;29;20461;-90
2023/08/28 13:32:35;;;;;;;20.02;9.75;;;;;;;22.63;43.01;99162.25;4906180;29;20052;-91
2023/08/28 13:35:03;;;;;;;22.77;8.40;;;;;;;22.64;42.09;99184.16;4921916;29;20191;-89
2023/08/28 13:37:30;;;;;;;27.73;8.77;;;;;;;22.52;43.96;99185.34;4922859;29;20036;-89
2023/08/28 13:40:20;;;;;;;16.80;9.10;;;;;;;22.43;43.22;99189.72;4913000;29;20024;-89
2023/08/28 13:42:47;;;;;;;19.17;8.77;;;;;;;22.36;45.11;99193.28;4906600;29;20044;-89
2023/08/28 13:45:33;;;;;;;19.42;8.48;;;;;;;22.42;45.79;99190.91;4893216;29;20056;-90
2023/08/28 13:48:01;;;;;;;15.60;8.48;;;;;;;22.33;44.76;99190.50;5098575;23;20061;-90
2023/08/28 13:50:30;;;;;;;15.15;8.05;;;;;;;22.02;46.27;99160.19;4998782;28;20030;-88
2023/08/28 13:53:01;;;;;;;16.30;8.07;;;;;;;22.00;44.74;99153.41;5015284;28;20053;-91
2023/08/28 13:55:58;;;;;;;23.92;8.55;;;;;;;22.38;46.34;99176.97;5008983;28;20022;-90
2023/08/28 13:58:38;;;;;;;24.88;8.60;;;;;;;22.48;45.35;99158.66;5014044;28;20480;-93
2023/08/28 14:01:07;;;;;;;31.08;9.25;;;;;;;22.43;43.72;99139.56;4997488;28;20046;-90
2023/08/28 14:03:34;;;;;;;50.53;9.65;;;;;;;22.43;42.39;99142.38;4978109;28;20042;-90
2023/08/28 14:06:27;;;;;;;21.85;9.02;;;;;;;22.34;43.06;99137.16;4992034;28;20033;-90
2023/08/28 14:09:01;;;;;;;24.92;8.63;;;;;;;22.64;43.57;99159.06;5012477;28;20066;-91
2023/08/28 14:22:57;;;;;;;17.63;8.35;;;;;;;22.47;43.01;99143.16;4958132;28;20046;-91
2023/08/28 14:25:29;;;;;;;27.52;8.57;;;;;;;22.14;43.50;99116.44;4960086;29;20051;-90
2023/08/28 14:27:57;;;;;;;15.32;8.13;;;;;;;22.17;44.83;99149.09;5219140;23;20137;-91
2023/08/28 14:30:55;;;;;;;23.27;7.75;;;;;;;21.66;46.25;99100.06;4997209;28;20029;-90
2023/08/28 14:33:44;;;;;;;30.33;10.05;;;;;;;21.55;46.57;99100.78;4924805;29;20072;-92
2023/08/28 14:36:51;;;;;;;34.30;9.68;;;;;;;21.46;46.25;99085.69;4936287;29;20071;-93
2023/08/28 14:39:17;;;;;;;20.58;9.35;;;;;;;21.80;46.52;99136.25;4903226;29;20547;-94
2023/08/28 14:41:47;;;;;;;19.30;8.70;;;;;;;21.77;46.47;99137.81;4934692;29;20036;-91
2023/08/28 14:44:18;;;;;;;24.65;8.88;;;;;;;21.82;46.75;99142.22;4902328;29;20044;-91
2023/08/28 14:46:44;;;;;;;19.75;8.88;;;;;;;21.75;45.83;99137.41;4899690;29;20051;-90
2023/08/28 14:49:12;;;;;;;23.90;9.48;;;;;;;21.68;46.90;99123.47;4915674;29;20062;-92
2023/08/28 14:51:39;;;;;;;28.88;9.30;;;;;;;21.46;47.36;99100.38;4933682;29;20107;-95
2023/08/28 14:54:07;;;;;;;34.00;9.73;;;;;;;21.21;47.25;99066.88;4912496;29;20055;-94
2023/08/28 14:56:33;;;;;;;27.25;8.90;;;;;;;21.34;47.38;99101.50;4894972;29;20047;-94
2023/08/28 14:59:00;;;;;;;36.03;10.05;;;;;;;21.23;47.96;99083.97;4911269;29;20059;-94
2023/08/28 15:01:27;;;;;;;19.73;9.77;;;;;;;20.99;47.43;99071.53;4907820;29;20079;-95
2023/08/28 15:03:55;;;;;;;20.40;10.60;;;;;;;20.86;47.99;99073.84;4898657;29;20448;-93
2023/08/28 15:06:21;;;;;;;39.78;16.73;;;;;;;21.12;48.77;99135.91;4870514;29;20049;-93
2023/08/28 15:08:48;;;;;;;42.05;21.48;;;;;;;20.92;49.00;99115.16;4855657;29;20120;-93
2023/08/28 15:11:14;;;;;;;32.58;16.80;;;;;;;20.45;49.57;99047.34;4860384;29;20052;-93
2023/08/28 15:13:43;;;;;;;30.67;14.70;;;;;;;20.80;49.92;99117.06;4916162;29;20541;-94
2023/08/28 15:16:10;;;;;;;24.65;10.68;;;;;;;20.79;49.73;99117.44;4871446;29;20053;-93
2023/08/28 15:18:45;;;;;;;43.22;10.60;;;;;;;20.95;49.47;99133.81;4883174;29;20028;-94
2023/08/28 15:21:12;;;;;;;30.15;9.32;;;;;;;20.85;49.79;99124.22;4866456;29;20040;-94
2023/08/28 15:23:58;;;;;;;32.33;10.43;;;;;;;20.70;49.92;99097.56;4903813;29;20064;-93
2023/08/28 15:26:41;;;;;;;39.85;10.15;;;;;;;20.62;50.31;99103.03;4898212;29;20087;-93
2023/08/28 15:29:12;;;;;;;31.63;9.65;;;;;;;20.42;50.90;99098.88;4892380;29;20037;-93
2023/08/28 15:34:36;;;;;;;93.65;12.57;;;;;;;20.25;50.77;99141.97;5014362;28;20054;-94
2023/08/28 15:37:19;;;;;;;50.42;12.65;;;;;;;19.89;50.39;99090.88;4991129;28;20031;-92
2023/08/28 15:40:38;;;;;;;57.03;12.27;;;;;;;19.72;50.73;99097.84;4950435;28;20058;-95
2023/08/28 15:52:16;;;;;;;162.57;14.85;;;;;;;19.28;51.67;99104.03;4936484;29;20135;-95
2023/08/28 15:54:53;;;;;;;37.85;9.93;;;;;;;19.24;52.38;99117.84;4879467;29;20045;-92
2023/08/28 15:57:22;;;;;;;40.80;9.90;;;;;;;19.10;51.71;99119.59;4888169;29;20064;-92
2023/08/28 15:59:52;;;;;;;52.55;10.40;;;;;;;19.28;51.98;99155.88;4916276;29;20044;-92
2023/08/28 16:02:42;;;;;;;23.27;8.25;;;;;;;18.65;52.02;99079.78;4904947;29;20049;-93
2023/08/28 16:47:41;;;;;;;61.58;28.35;;;;;;;18.90;53.96;99235.25;5720506;23;20042;-94
2023/08/28 16:53:46;;;;;;;84.90;28.88;;;;;;;18.16;54.63;99171.88;5115711;23;20048;-91
2023/08/28 17:29:14;;;;;;;50.28;18.95;;;;;;;16.73;58.08;99169.56;5017345;28;20141;-91
2023/08/28 17:31:53;;;;;;;56.55;18.90;;;;;;;17.12;58.33;99244.31;5157235;23;20047;-93
2023/08/28 18:47:34;;;;;;;25.77;11.77;;;;;;;15.54;62.30;99213.63;5036994;28;20058;-93
2023/08/28 19:26:42;;;;;;;50.90;14.10;;;;;;;15.29;64.13;99268.75;1129238;23;20301;31
2023/08/28 19:29:15;;;;;;;123.22;28.50;;;;;;;15.16;64.64;99254.16;4907521;29;20051;-91
2023/08/28 19:31:44;;;;;;;62.78;17.02;;;;;;;14.95;65.33;99237.78;4923485;29;20052;-92
2023/08/28 19:37:28;;;;;;;83.20;16.45;;;;;;;14.85;65.82;99226.44;5490311;23;20087;-92
2023/08/28 19:39:56;;;;;;;42.42;15.00;;;;;;;14.87;65.64;99241.47;4964299;28;20070;-93
2023/08/28 19:42:35;;;;;;;47.25;19.08;;;;;;;14.47;66.06;99177.97;4965831;28;20054;-92
2023/08/28 19:45:04;;;;;;;77.78;31.27;;;;;;;14.85;66.16;99249.25;4965751;28;20050;-92
2023/08/28 19:47:42;;;;;;;58.85;23.00;;;;;;;14.57;66.16;99210.59;4965973;28;20042;-93
2023/08/28 19:50:09;;;;;;;75.15;24.83;;;;;;;14.75;66.13;99249.69;4966097;28;20034;-92
2023/08/28 19:52:39;;;;;;;59.45;20.08;;;;;;;14.78;65.89;99249.03;4966761;28;20035;-89
2023/08/28 19:55:31;;;;;;;;;;;;;;;14.88;65.82;99261.53;4959529;29;20041;-90
2023/08/28 20:03:54;;;;;;;50.30;21.00;;;;;;;14.40;66.51;99216.25;4992886;28;20051;-92
2023/08/28 20:06:25;;;;;;;52.78;24.25;;;;;;;14.65;65.34;99256.44;4936653;28;20066;-92
2023/08/28 20:08:52;;;;;;;37.35;17.05;;;;;;;14.69;65.47;99262.06;4926581;29;20039;-96
2023/08/28 20:11:22;;;;;;;43.97;15.90;;;;;;;14.80;65.86;99286.06;4943559;29;20078;-93
2023/08/28 20:13:49;;;;;;;99.82;15.10;;;;;;;14.21;65.89;99192.84;4927767;29;20054;-94
2023/08/28 20:16:15;;;;;;;138.00;15.13;;;;;;;14.42;66.08;99231.28;4925448;29;20043;-93
2023/08/28 20:18:47;;;;;;;52.22;11.63;;;;;;;14.35;65.92;99231.03;4946896;28;20038;-94
2023/08/28 20:21:24;;;;;;;26.92;10.98;;;;;;;14.17;66.04;99204.84;4939296;28;20042;-96
2023/08/28 20:23:52;;;;;;;33.00;10.60;;;;;;;14.50;65.59;99265.31;4933670;28;20401;-94
2023/08/28 20:26:18;;;;;;;35.35;11.05;;;;;;;14.25;66.26;99231.47;4935429;28;20108;-95
2023/08/28 20:28:45;;;;;;;35.00;11.23;;;;;;;14.38;66.33;99265.31;4937222;28;20487;-95
2023/08/28 20:31:19;;;;;;;23.85;10.70;;;;;;;14.24;65.58;99246.38;4964522;28;20039;-95
2023/08/28 20:33:46;;;;;;;36.72;10.68;;;;;;;14.37;65.82;99260.94;4939892;28;20075;-96
2023/08/28 20:36:33;;;;;;;28.15;10.32;;;;;;;14.18;65.65;99220.22;4914838;29;20051;-94
2023/08/28 20:39:02;;;;;;;34.10;10.48;;;;;;;14.52;65.41;99285.88;4929720;29;20058;-96
2023/08/28 20:41:29;;;;;;;30.15;10.27;;;;;;;14.02;65.68;99203.56;4926084;29;20079;-95
2023/08/28 20:43:55;;;;;;;32.88;9.98;;;;;;;14.27;65.71;99246.50;4941899;29;20054;-92
2023/08/28 20:46:24;;;;;;;34.88;10.45;;;;;;;14.15;65.67;99229.94;4958778;29;20047;-95
2023/08/28 20:48:51;;;;;;;25.58;10.23;;;;;;;14.24;66.23;99251.88;4944642;28;20070;-93
2023/08/28 20:51:32;;;;;;;23.13;9.68;;;;;;;13.92;65.94;99212.22;4928594;28;20047;-93
2023/08/28 20:54:00;;;;;;;23.30;10.40;;;;;;;14.19;66.00;99255.63;4940972;28;20075;-93
2023/08/28 20:56:26;;;;;;;26.13;11.07;;;;;;;13.83;66.19;99198.56;4924999;28;20062;-93
2023/08/28 20:58:53;;;;;;;39.22;9.98;;;;;;;13.85;66.52;99213.56;4925190;29;20039;-94
2023/08/28 21:01:21;;;;;;;35.13;11.13;;;;;;;14.36;66.42;99292.34;4906986;29;20051;-93
2023/08/28 21:03:47;;;;;;;47.83;10.95;;;;;;;14.13;66.63;99267.97;4925033;28;20055;-93
2023/08/28 21:06:16;;;;;;;32.15;10.75;;;;;;;13.94;67.07;99237.41;4947965;28;20050;-92
2023/08/28 21:08:46;;;;;;;26.25;9.98;;;;;;;13.73;66.83;99207.22;4928692;29;20040;-93
2023/08/28 21:11:13;;;;;;;40.78;10.80;;;;;;;14.03;66.96;99287.63;4932327;28;20061;-92
2023/08/28 21:13:39;;;;;;;36.97;11.73;;;;;;;14.05;66.98;99282.59;4934168;28;20103;-92
2023/08/28 21:16:05;;;;;;;25.97;11.27;;;;;;;14.20;67.09;99308.66;4946638;28;20038;-94
2023/08/28 21:18:32;;;;;;;34.83;12.35;;;;;;;14.22;67.22;99314.63;4943553;28;20049;-93
2023/08/28 21:21:01;;;;;;;39.80;12.43;;;;;;;14.23;67.02;99316.22;4934971;28;20038;-95
2023/08/28 21:23:49;;;;;;;26.23;10.93;;;;;;;13.75;66.79;99235.97;4970368;29;20054;-96
2023/08/28 21:26:17;;;;;;;32.60;11.20;;;;;;;13.66;66.59;99240.72;4940376;28;20085;-92
2023/08/28 21:28:46;;;;;;;29.23;10.88;;;;;;;13.80;66.90;99271.47;4932802;29;20115;-93
2023/08/28 21:31:17;;;;;;;30.70;11.10;;;;;;;14.20;66.83;99330.63;4921654;28;20519;-95
2023/08/28 21:33:43;;;;;;;26.88;10.88;;;;;;;14.10;66.70;99329.94;4935497;28;20061;-93
2023/08/28 21:36:10;;;;;;;28.75;10.40;;;;;;;13.66;66.76;99259.94;4921683;28;20057;-95
2023/08/28 21:38:36;;;;;;;28.52;11.57;;;;;;;13.55;66.70;99261.50;4933693;28;20039;-95
2023/08/28 21:41:03;;;;;;;;;;;;;;;14.04;66.93;99347.75;4949103;28;20434;-95
2023/08/28 21:43:31;;;;;;;29.83;10.70;;;;;;;13.42;67.21;99249.63;4923340;29;19902;-93
2023/08/28 21:46:20;;;;;;;27.05;10.75;;;;;;;13.58;67.52;99291.03;4947172;28;20508;-94
2023/08/28 21:48:46;;;;;;;25.02;10.98;;;;;;;13.60;67.55;99297.78;4953864;28;20050;-94
2023/08/28 21:51:32;;;;;;;31.67;11.10;;;;;;;13.59;67.33;99292.66;4967663;28;20043;-95
2023/08/28 21:54:19;;;;;;;29.17;11.23;;;;;;;13.62;67.98;99303.75;4966861;28;20039;-95
2023/08/28 21:57:04;;;;;;;24.98;10.52;;;;;;;13.32;67.51;99256.31;4960539;29;20051;-94
2023/08/28 21:59:49;;;;;;;26.60;11.10;;;;;;;13.70;67.31;99310.31;4960871;28;20413;-96
2023/08/28 22:02:35;;;;;;;21.17;10.95;;;;;;;13.63;67.31;99308.09;5015927;23;20072;-93
2023/08/28 22:05:20;;;;;;;26.67;11.65;;;;;;;13.46;67.63;99277.22;4989213;28;20092;-96
2023/08/28 22:07:49;;;;;;;27.80;12.18;;;;;;;13.49;67.37;99284.78;4987677;28;20038;-95
2023/08/28 22:10:18;;;;;;;27.48;11.48;;;;;;;13.54;67.50;99290.91;4972869;28;20208;-94
2023/08/28 22:12:59;;;;;;;27.23;10.80;;;;;;;13.40;67.58;99284.84;4989991;28;20031;-95
2023/08/28 22:15:25;;;;;;;38.33;11.25;;;;;;;13.74;67.64;99337.94;4977272;28;20037;-95
2023/08/28 22:17:51;;;;;;;35.60;11.70;;;;;;;13.32;67.56;99264.53;4983062;28;20037;-93
2023/08/28 22:20:21;;;;;;;23.95;10.93;;;;;;;13.51;67.98;99308.06;4986584;28;20140;-93
2023/08/28 22:22:48;;;;;;;31.75;11.38;;;;;;;13.74;68.18;99346.19;4979894;28;20074;-95
2023/08/28 22:25:14;;;;;;;25.33;10.60;;;;;;;13.73;68.07;99347.31;4971521;28;20049;-95
2023/08/28 22:27:40;;;;;;;28.33;10.70;;;;;;;13.71;68.32;99358.66;4980985;28;20050;-95
2023/08/28 22:30:12;;;;;;;40.38;11.05;;;;;;;13.16;68.05;99277.19;4978917;28;20034;-93
2023/08/28 22:32:38;;;;;;;27.58;11.10;;;;;;;13.06;68.54;99266.59;4977835;28;20046;-94
2023/08/28 22:35:06;;;;;;;22.48;10.80;;;;;;;13.63;68.29;99351.25;4991783;28;20042;-95
2023/08/28 22:37:35;;;;;;;34.33;11.18;;;;;;;13.23;68.63;99293.94;4972676;28;20048;-93
2023/08/28 22:40:03;;;;;;;30.15;11.57;;;;;;;12.91;68.66;99271.50;4976805;28;20439;-95
2023/08/28 22:42:29;;;;;;;29.92;10.85;;;;;;;13.31;69.02;99326.09;4983914;28;20053;-92
2023/08/28 22:44:56;;;;;;;29.35;10.93;;;;;;;13.33;68.78;99331.25;4965062;28;20061;-94
2023/08/28 22:47:22;;;;;;;22.55;11.07;;;;;;;12.93;68.73;99250.03;4967900;28;20041;-93
2023/08/28 22:49:48;;;;;;;21.90;10.75;;;;;;;13.48;68.33;99347.16;4978590;28;20038;-96
2023/08/28 22:52:14;;;;;;;26.70;10.73;;;;;;;13.13;68.26;99291.59;4951066;28;20038;-93
2023/08/28 22:54:45;;;;;;;32.40;10.63;;;;;;;12.96;67.87;99266.97;4990037;28;20038;-93
2023/08/28 22:57:12;;;;;;;20.38;9.40;;;;;;;13.15;68.10;99320.31;4970563;28;20049;-89
2023/08/28 22:59:40;;;;;;;26.70;9.25;;;;;;;12.92;67.99;99284.09;5019702;28;20026;-91
2023/08/28 23:02:07;;;;;;;31.90;9.05;;;;;;;13.47;67.70;99352.97;4995401;28;20037;-93
2023/08/28 23:04:33;;;;;;;21.02;9.30;;;;;;;13.08;67.14;99298.06;4930777;29;20058;-92
2023/08/28 23:06:59;;;;;;;22.70;9.30;;;;;;;13.16;67.35;99313.69;4939608;29;20043;-95
2023/08/28 23:09:25;;;;;;;21.80;9.70;;;;;;;13.00;67.47;99298.09;4990365;28;20505;-95
2023/08/28 23:11:53;;;;;;;27.13;9.15;;;;;;;13.05;67.72;99322.63;4973077;29;20062;-94
2023/08/28 23:14:18;;;;;;;21.93;9.43;;;;;;;12.87;67.94;99308.94;4955602;29;20039;-96
2023/08/28 23:16:46;;;;;;;25.17;10.50;;;;;;;13.36;68.69;99378.06;4952489;29;20101;-95
2023/08/28 23:19:12;;;;;;;31.85;9.82;;;;;;;13.00;67.88;99318.09;4939084;29;20043;-93
2023/08/28 23:21:39;;;;;;;26.63;10.05;;;;;;;13.13;67.76;99336.28;4939157;29;20043;-96
2023/08/28 23:24:08;;;;;;;19.65;8.80;;;;;;;13.38;67.51;99364.00;4921741;29;20054;-93
2023/08/28 23:26:35;;;;;;;24.40;8.20;;;;;;;12.96;67.29;99303.44;4952282;29;20051;-92
2023/08/28 23:29:01;;;;;;;15.60;7.90;;;;;;;13.13;67.46;99340.97;4937474;29;20187;-96
2023/08/28 23:31:28;;;;;;;19.25;8.15;;;;;;;13.30;67.58;99365.63;4938477;29;20560;-96
2023/08/28 23:33:54;;;;;;;22.02;8.70;;;;;;;12.90;67.77;99302.00;4968436;29;20062;-96
2023/08/28 23:36:22;;;;;;;28.25;8.65;;;;;;;13.10;67.78;99336.94;4952553;29;20058;-94
2023/08/28 23:38:48;;;;;;;21.35;8.20;;;;;;;12.89;67.45;99312.19;4968396;28;20043;-94
2023/08/28 23:41:14;;;;;;;18.20;8.02;;;;;;;13.11;67.56;99340.50;4952796;29;20054;-96
2023/08/28 23:43:40;;;;;;;19.67;7.45;;;;;;;13.02;67.11;99332.31;4954771;29;20106;-96
2023/08/28 23:46:06;;;;;;;13.43;6.85;;;;;;;12.92;67.37;99313.47;4939191;29;20050;-96
2023/08/28 23:48:32;;;;;;;14.38;7.15;;;;;;;13.27;67.29;99368.25;4968898;28;20069;-96
2023/08/28 23:50:59;;;;;;;20.58;7.43;;;;;;;12.72;67.76;99275.78;4952555;29;20046;-95
2023/08/28 23:53:25;;;;;;;19.47;7.17;;;;;;;12.97;67.41;99316.03;4936280;29;20043;-95
2023/08/28 23:55:51;;;;;;;14.43;6.55;;;;;;;13.15;67.08;99366.19;4951375;29;20287;-94
2023/08/28 23:58:17;;;;;;;15.55;6.43;;;;;;;12.82;67.40;99302.84;4951647;29;20035;-93
